sim
Sign-in with your pilot id or email,
or register
Callsign
Passwort

Schedule Details

Flight Number: OEC87702
Departure: Frankfurt Airport (EDDF) at 12:00 UTC
Arrival: Fuerteventura Airport (GCFV) at 16:00 UTC
Route: ANEK1A ANEKI Y163 NATOR DCT BALSI UN852 VERSO UL129 LABRO UA6 MOS UA411 FES UM372 AGOVA UH400 MAK UG850 ADM UN869 RUSIK RUSI3B

Weather Information
Getting current METAR information for EDDF 211520Z 22008KT 9999 FEW028 12/06 Q1027 NOSIG
Getting current METAR information for GCFV 211500Z 06004KT 010V110 CAVOK 20/14 Q1021

Schedule Frequency

Route Map